Time;durP1;ratioP1;P1;durP2;ratioP2;P2;SDS_P1;SDS_P2;PMS_P1;PMS_P2;Temp;Humidity;BMP_temperature;BMP_pressure;BME280_temperature;BME280_humidity;BME280_pressure;Samples;Min_cycle;Max_cycle;Signal;HPM_P1;HPM_P2
2022/09/28 00:00:22;;;;;;;12.70;9.75;;;;;;;15.23;78.77;93658.44;4161903;28;20055;-57
2022/09/28 00:02:25;;;;;;;15.73;9.25;;;;;;;15.14;78.24;93649.97;4165187;28;20133;-57
2022/09/28 00:04:27;;;;;;;17.73;9.55;;;;;;;15.01;78.63;93650.03;4164996;28;20053;-60
2022/09/28 00:06:29;;;;;;;14.93;9.60;;;;;;;14.97;79.20;93651.50;4172998;28;20088;-58
2022/09/28 00:08:32;;;;;;;13.23;9.02;;;;;;;14.89;79.08;93657.03;4173971;28;20145;-59
2022/09/28 00:10:33;;;;;;;13.40;9.52;;;;;;;14.87;79.04;93641.41;4178526;28;20498;-59
2022/09/28 00:12:35;;;;;;;13.18;9.38;;;;;;;14.79;78.77;93646.13;4163363;28;20051;-58
2022/09/28 00:14:39;;;;;;;15.45;11.10;;;;;;;14.56;79.53;93652.69;4170827;28;20086;-59
2022/09/28 00:16:42;;;;;;;14.40;10.07;;;;;;;14.45;80.49;93650.69;4161725;28;20249;-58
2022/09/28 00:18:44;;;;;;;11.45;9.35;;;;;;;14.48;80.70;93640.53;4176016;28;20347;-58
2022/09/28 00:20:46;;;;;;;12.05;9.82;;;;;;;14.44;80.27;93638.53;4163894;28;20053;-58
2022/09/28 00:22:48;;;;;;;12.50;9.30;;;;;;;14.44;80.35;93641.16;4166826;28;20148;-58
2022/09/28 00:24:49;;;;;;;12.13;9.27;;;;;;;14.48;80.03;93631.84;4175943;28;20049;-59
2022/09/28 00:26:53;;;;;;;13.38;9.88;;;;;;;14.46;80.06;93637.31;4174145;28;20148;-59
2022/09/28 00:28:58;;;;;;;11.32;8.75;;;;;;;14.46;79.94;93636.50;4167100;28;20049;-57
2022/09/28 00:30:59;;;;;;;10.88;9.05;;;;;;;14.44;79.44;93633.25;4159602;28;20084;-58
2022/09/28 00:33:01;;;;;;;10.18;8.05;;;;;;;14.46;79.30;93647.03;4176055;28;20516;-58
2022/09/28 00:35:03;;;;;;;10.20;7.07;;;;;;;14.50;78.88;93641.13;4171528;28;20095;-58
2022/09/28 00:37:07;;;;;;;9.45;6.90;;;;;;;14.57;78.73;93653.53;4163063;28;20111;-59
2022/09/28 00:39:10;;;;;;;10.60;6.72;;;;;;;14.54;77.77;93623.91;4162678;28;20056;-59
2022/09/28 00:41:12;;;;;;;15.13;7.70;;;;;;;14.47;78.22;93631.00;4175557;28;20456;-59
2022/09/28 00:43:19;;;;;;;10.65;6.70;;;;;;;14.46;78.16;93641.78;4162693;28;20060;-59
2022/09/28 00:45:23;;;;;;;11.40;6.28;;;;;;;14.46;78.13;93637.31;4173930;28;20053;-58
2022/09/28 00:47:54;;;;;;;7.70;6.28;;;;;;;14.45;78.04;93634.88;4160164;28;20537;-57
2022/09/28 00:50:21;;;;;;;8.05;5.90;;;;;;;14.50;78.39;93637.72;4164111;28;20470;-58
2022/09/28 00:52:30;;;;;;;11.20;6.00;;;;;;;14.54;78.06;93644.97;4168261;28;20049;-58
2022/09/28 00:54:32;;;;;;;8.45;5.70;;;;;;;14.58;77.86;93637.47;4172463;28;20151;-60
2022/09/28 00:56:35;;;;;;;7.57;5.47;;;;;;;14.58;77.32;93640.09;4173621;28;20139;-56
2022/09/28 00:58:44;;;;;;;12.95;5.70;;;;;;;14.58;77.52;93640.09;4163537;28;20516;-59
2022/09/28 01:00:47;;;;;;;8.05;5.30;;;;;;;14.56;77.42;93639.50;4170774;28;20106;-57
2022/09/28 01:02:49;;;;;;;8.23;5.95;;;;;;;14.57;77.45;93643.78;4175903;28;20057;-56
2022/09/28 01:04:51;;;;;;;7.65;5.65;;;;;;;14.56;77.36;93642.16;4174971;28;20053;-58
2022/09/28 01:06:52;;;;;;;9.43;5.47;;;;;;;14.58;77.59;93644.56;4161109;28;20137;-59
2022/09/28 01:08:57;;;;;;;6.15;5.00;;;;;;;14.59;77.05;93641.75;4168829;28;20169;-59
2022/09/28 01:10:59;;;;;;;5.75;4.80;;;;;;;14.61;76.28;93646.81;4167687;28;20050;-58
2022/09/28 01:13:01;;;;;;;7.40;4.63;;;;;;;14.59;76.73;93644.38;4161803;28;20076;-58
2022/09/28 01:15:04;;;;;;;9.55;4.93;;;;;;;14.30;76.21;93641.22;4160156;28;20136;-59
2022/09/28 01:17:11;;;;;;;10.35;5.75;;;;;;;14.19;77.06;93644.47;4160129;28;20079;-58
2022/09/28 01:19:21;;;;;;;8.45;4.63;;;;;;;14.23;77.37;93640.41;4175165;28;20053;-60
2022/09/28 01:21:23;;;;;;;7.68;5.07;;;;;;;14.24;77.26;93638.59;4160852;28;20080;-58
2022/09/28 01:23:43;;;;;;;8.80;5.50;;;;;;;14.27;77.74;93638.97;4162261;28;20133;-58
2022/09/28 01:26:08;;;;;;;6.90;4.55;;;;;;;14.36;77.42;93641.41;4164508;28;20073;-58
2022/09/28 01:28:14;;;;;;;8.30;5.20;;;;;;;14.34;77.40;93638.97;4163949;28;20073;-58
2022/09/28 01:30:19;;;;;;;7.80;5.30;;;;;;;13.88;77.83;93648.59;4164803;28;20521;-58
2022/09/28 01:32:20;;;;;;;10.82;4.63;;;;;;;13.41;79.69;93647.00;4140604;28;20076;-59
2022/09/28 01:35:02;;;;;;;6.68;4.38;;;;;;;13.42;80.48;93656.50;4164109;28;20445;-58
2022/09/28 01:37:06;;;;;;;6.85;4.75;;;;;;;13.54;80.42;93662.00;4169403;28;20067;-58
2022/09/28 01:39:11;;;;;;;6.10;4.25;;;;;;;13.63;79.57;93644.97;4167439;28;20136;-59
2022/09/28 01:41:16;;;;;;;8.00;4.00;;;;;;;13.71;78.89;93642.94;4168579;28;20046;-59
2022/09/28 01:43:29;;;;;;;7.88;3.80;;;;;;;13.82;78.86;93664.41;4160661;28;20045;-58
2022/09/28 01:45:44;;;;;;;6.00;3.67;;;;;;;13.93;78.21;93651.41;4170422;28;20102;-57
2022/09/28 01:47:47;;;;;;;5.05;3.40;;;;;;;13.85;77.18;93649.03;4163855;28;20128;-59
2022/09/28 01:49:59;;;;;;;10.40;4.60;;;;;;;13.87;77.71;93654.88;4167843;28;20512;-59
2022/09/28 01:52:28;;;;;;;6.28;3.50;;;;;;;13.84;76.97;93644.75;4174442;28;20128;-59
2022/09/28 01:54:34;;;;;;;5.75;3.40;;;;;;;13.77;77.18;93654.50;4174226;28;20139;-58
2022/09/28 01:56:44;;;;;;;6.30;3.83;;;;;;;13.80;77.71;93658.53;4175958;28;20132;-58
2022/09/28 01:58:52;;;;;;;6.85;3.50;;;;;;;13.83;77.33;93656.31;4176238;28;20080;-58
2022/09/28 02:01:01;;;;;;;7.75;4.22;;;;;;;13.74;77.71;93652.25;4173688;28;20151;-58
2022/09/28 02:03:13;;;;;;;7.20;3.95;;;;;;;13.75;77.54;93656.50;4166224;28;20075;-59
2022/09/28 02:05:18;;;;;;;4.50;3.40;;;;;;;13.49;77.72;93652.06;4176781;28;20099;-59
2022/09/28 02:07:48;;;;;;;5.93;3.47;;;;;;;13.34;78.64;93662.78;4171807;28;20052;-58
2022/09/28 02:09:57;;;;;;;6.53;3.47;;;;;;;13.43;79.14;93656.31;4174334;28;20124;-58
2022/09/28 02:12:04;;;;;;;7.20;4.05;;;;;;;13.50;79.06;93664.22;4169343;28;20167;-58
2022/09/28 02:14:10;;;;;;;4.95;3.30;;;;;;;13.60;78.24;93666.44;4172997;28;20091;-57
2022/09/28 02:16:17;;;;;;;7.93;3.65;;;;;;;13.70;78.53;93665.03;4174634;28;20051;-58
2022/09/28 02:18:19;;;;;;;6.60;3.75;;;;;;;13.79;78.36;93660.38;4172874;28;20044;-60
2022/09/28 02:20:22;;;;;;;6.25;3.40;;;;;;;13.84;77.76;93660.53;4175952;28;20506;-57
2022/09/28 02:22:26;;;;;;;;;;;;;;;13.83;77.50;93669.47;4179216;28;20049;-58
2022/09/28 02:24:40;;;;;;;6.95;3.60;;;;;;;13.64;77.38;93670.28;4172373;28;19928;-60
2022/09/28 02:26:44;;;;;;;6.20;3.90;;;;;;;13.57;78.50;93667.63;4168948;28;20052;-58
2022/09/28 02:28:46;;;;;;;7.30;3.75;;;;;;;13.59;78.50;93660.34;4178361;28;20052;-58
2022/09/28 02:30:48;;;;;;;6.47;4.45;;;;;;;13.46;78.94;93655.09;4176402;28;20442;-59
2022/09/28 02:32:52;;;;;;;8.77;3.83;;;;;;;13.45;79.42;93656.91;4175892;28;20048;-59
2022/09/28 02:34:54;;;;;;;9.13;3.92;;;;;;;13.54;79.02;93665.44;4176354;28;20051;-59
2022/09/28 02:36:56;;;;;;;4.97;3.83;;;;;;;13.58;78.58;93660.56;4177526;28;20084;-59
2022/09/28 02:39:01;;;;;;;7.38;4.20;;;;;;;13.61;78.64;93657.53;4177708;28;20517;-58
2022/09/28 02:41:31;;;;;;;7.32;4.32;;;;;;;13.67;78.60;93654.09;4173038;28;20045;-59
2022/09/28 02:43:55;;;;;;;9.35;5.13;;;;;;;13.54;78.91;93654.91;4170145;28;20057;-58
2022/09/28 02:46:15;;;;;;;8.30;4.78;;;;;;;13.34;79.82;93660.16;4170522;28;20473;-58
2022/09/28 02:48:37;;;;;;;10.30;4.75;;;;;;;13.41;80.23;93657.53;4170011;28;20052;-58
2022/09/28 02:51:03;;;;;;;8.40;6.47;;;;;;;13.10;81.41;93667.59;4169012;28;20473;-57
2022/09/28 02:53:29;;;;;;;10.57;7.63;;;;;;;13.07;81.85;93664.53;4167978;28;20137;-64
2022/09/28 02:55:49;;;;;;;10.18;7.25;;;;;;;13.19;82.15;93673.47;4173222;28;20132;-62
2022/09/28 02:58:10;;;;;;;11.55;6.25;;;;;;;13.32;81.57;93672.69;4177837;28;20056;-63
2022/09/28 03:00:22;;;;;;;11.65;7.10;;;;;;;13.42;81.07;93683.66;4170610;28;20095;-64
2022/09/28 03:02:39;;;;;;;9.27;6.35;;;;;;;13.49;80.60;93673.13;4172730;28;20042;-62
2022/09/28 03:05:19;;;;;;;11.50;7.47;;;;;;;13.38;80.48;93677.16;4164971;28;20140;-64
2022/09/28 03:07:37;;;;;;;10.77;7.05;;;;;;;13.36;81.05;93684.44;4166582;28;20137;-65
2022/09/28 03:09:51;;;;;;;10.77;7.65;;;;;;;13.40;80.98;93680.41;4174208;28;20080;-63
2022/09/28 03:11:56;;;;;;;11.50;8.88;;;;;;;13.44;81.14;93692.16;4168943;28;20502;-64
2022/09/28 03:13:58;;;;;;;12.80;8.73;;;;;;;13.49;80.89;93692.34;4168253;28;20107;-64
2022/09/28 03:16:12;;;;;;;16.98;10.35;;;;;;;13.55;80.71;93682.84;4174824;28;20112;-67
2022/09/28 03:18:14;;;;;;;;;;;;;;;13.57;80.49;93698.41;4169987;28;20060;-63
2022/09/28 03:20:16;;;;;;;13.23;9.43;;;;;;;13.56;80.15;93696.81;4176048;28;19921;-65
2022/09/28 03:22:17;;;;;;;9.55;8.20;;;;;;;13.57;80.54;93698.41;4168405;28;20067;-63
2022/09/28 03:24:19;;;;;;;11.90;8.23;;;;;;;13.63;80.18;93697.59;4168956;28;20053;-64
2022/09/28 03:26:21;;;;;;;14.52;8.57;;;;;;;13.68;80.15;93697.81;4168848;28;20083;-65
2022/09/28 03:28:22;;;;;;;12.10;9.20;;;;;;;13.67;80.08;93702.25;4168377;28;20077;-64
2022/09/28 03:30:24;;;;;;;12.30;7.32;;;;;;;13.63;79.89;93711.56;4164838;28;20588;-65
2022/09/28 03:32:26;;;;;;;9.50;6.60;;;;;;;13.67;79.59;93698.81;4172313;28;20045;-64
2022/09/28 03:34:27;;;;;;;13.38;7.75;;;;;;;13.69;79.69;93704.69;4169902;28;20148;-64
2022/09/28 03:36:29;;;;;;;13.65;7.00;;;;;;;13.69;80.00;93702.06;4168954;28;20136;-64
2022/09/28 03:38:30;;;;;;;10.52;5.90;;;;;;;13.75;79.66;93703.91;4172154;28;20139;-63
2022/09/28 03:40:32;;;;;;;8.98;6.38;;;;;;;13.80;79.34;93703.28;4168314;28;20132;-62
2022/09/28 03:42:35;;;;;;;11.57;5.38;;;;;;;13.84;78.80;93704.50;4165651;28;20830;-64
2022/09/28 03:44:37;;;;;;;11.02;6.35;;;;;;;13.58;78.64;93700.84;4178136;28;20057;-65
2022/09/28 03:46:39;;;;;;;9.20;5.80;;;;;;;13.50;79.31;93699.22;4178079;28;20057;-65
2022/09/28 03:48:41;;;;;;;12.00;5.43;;;;;;;13.51;79.76;93698.22;4178183;28;20041;-65
2022/09/28 03:50:43;;;;;;;10.25;5.53;;;;;;;13.59;79.39;93699.81;4178827;28;20064;-65
2022/09/28 03:52:44;;;;;;;12.27;5.88;;;;;;;13.64;79.83;93701.88;4179630;28;20140;-66
2022/09/28 03:54:46;;;;;;;7.15;5.82;;;;;;;13.72;79.72;93697.22;4168829;28;20128;-64
2022/09/28 03:56:50;;;;;;;7.75;5.72;;;;;;;13.82;79.48;93712.59;4166058;28;20081;-63
2022/09/28 03:58:52;;;;;;;10.93;5.70;;;;;;;13.90;79.28;93716.84;4176333;28;20046;-65
2022/09/28 04:00:54;;;;;;;10.95;5.70;;;;;;;13.94;78.73;93702.28;4171738;28;20136;-65
2022/09/28 04:02:56;;;;;;;11.98;5.43;;;;;;;13.95;78.86;93703.06;4179377;28;20132;-66
2022/09/28 04:04:57;;;;;;;7.32;5.68;;;;;;;13.99;78.55;93699.81;4171207;28;20076;-65
2022/09/28 04:06:59;;;;;;;8.73;5.13;;;;;;;13.89;78.52;93692.31;4178091;28;20055;-66
2022/09/28 04:09:00;;;;;;;10.02;5.55;;;;;;;13.64;79.17;93693.97;4178810;28;20045;-65
2022/09/28 04:11:02;;;;;;;7.85;5.75;;;;;;;13.60;80.15;93700.66;4178531;28;20059;-64
2022/09/28 04:13:04;;;;;;;9.18;5.85;;;;;;;13.66;80.19;93702.47;4179830;28;20044;-66
2022/09/28 04:15:06;;;;;;;10.82;6.10;;;;;;;13.31;80.49;93692.94;4178515;28;20077;-67
2022/09/28 04:17:08;;;;;;;11.07;5.97;;;;;;;13.40;81.14;93705.88;4178469;28;20084;-65
2022/09/28 04:19:09;;;;;;;9.38;5.55;;;;;;;13.49;81.14;93704.69;4177173;28;20037;-65
2022/09/28 04:21:12;;;;;;;10.52;5.80;;;;;;;13.55;80.47;93703.91;4178915;28;20394;-65
2022/09/28 04:23:14;;;;;;;21.50;6.80;;;;;;;13.64;80.48;93707.13;4168472;28;20501;-65
2022/09/28 04:25:16;;;;;;;17.50;5.80;;;;;;;13.71;79.81;93710.56;4176335;28;20053;-68
2022/09/28 04:29:40;;;;;;;9.68;6.07;;;;;;;13.84;79.11;93705.31;4178492;28;20060;-62
2022/09/28 04:31:42;;;;;;;;;;;;;;;13.93;78.95;93706.69;4175211;28;20056;-62
2022/09/28 04:33:43;;;;;;;9.35;5.35;;;;;;;13.99;78.73;93707.72;4177861;28;19924;-59
2022/09/28 04:35:45;;;;;;;8.43;5.53;;;;;;;14.01;78.26;93708.31;4171488;28;21064;-59
2022/09/28 04:37:47;;;;;;;8.27;6.03;;;;;;;14.09;78.00;93702.06;4173269;28;20049;-60
2022/09/28 04:39:48;;;;;;;8.50;5.80;;;;;;;14.13;77.87;93697.97;4178641;28;20140;-63
2022/09/28 04:41:50;;;;;;;11.55;5.57;;;;;;;14.16;78.10;93702.03;4164475;28;20118;-59
2022/09/28 04:43:52;;;;;;;13.15;5.22;;;;;;;14.21;78.34;93703.03;4162291;28;20053;-60
2022/09/28 04:46:04;;;;;;;9.13;5.40;;;;;;;14.27;77.45;93707.47;4163945;28;20338;-60
2022/09/28 04:48:06;;;;;;;8.05;5.53;;;;;;;14.31;77.14;93698.16;4178756;28;20045;-59
2022/09/28 04:50:08;;;;;;;10.13;6.13;;;;;;;14.06;76.65;93694.53;4178531;28;20079;-60
2022/09/28 04:52:10;;;;;;;10.70;5.63;;;;;;;14.06;77.72;93702.44;4178136;28;20152;-58
2022/09/28 04:54:18;;;;;;;11.73;6.05;;;;;;;14.10;78.21;93698.38;4178785;28;20068;-59
2022/09/28 04:56:20;;;;;;;10.57;6.55;;;;;;;13.87;78.27;93697.00;4168457;28;20129;-61
2022/09/28 04:58:22;;;;;;;10.15;6.85;;;;;;;13.82;78.46;93691.53;4173879;28;20088;-62
2022/09/28 05:00:23;;;;;;;12.45;7.00;;;;;;;13.84;79.27;93702.66;4169665;28;20092;-59
2022/09/28 05:02:26;;;;;;;9.45;7.00;;;;;;;13.88;79.34;93698.63;4179177;28;20657;-61
2022/09/28 05:04:29;;;;;;;9.77;6.63;;;;;;;13.78;78.89;93703.47;4178272;28;20428;-60
2022/09/28 05:06:31;;;;;;;11.45;6.82;;;;;;;13.76;79.99;93702.88;4178246;28;20147;-62
2022/09/28 05:08:34;;;;;;;15.85;8.88;;;;;;;13.63;79.59;93706.31;4177832;28;20418;-64
2022/09/28 05:10:39;;;;;;;14.15;8.93;;;;;;;13.72;80.16;93696.38;4176571;28;20053;-65
2022/09/28 05:12:40;;;;;;;11.85;7.72;;;;;;;13.86;80.08;93716.44;4178048;28;20059;-63
2022/09/28 05:14:42;;;;;;;11.43;7.00;;;;;;;13.99;79.31;93704.28;4164089;28;20143;-65
2022/09/28 05:16:44;;;;;;;11.95;6.38;;;;;;;14.10;78.81;93707.09;4172091;28;20041;-64
2022/09/28 05:18:46;;;;;;;8.60;6.25;;;;;;;14.23;78.08;93708.09;4170069;28;20103;-67
2022/09/28 05:20:48;;;;;;;8.60;6.78;;;;;;;14.27;76.80;93707.47;4162007;28;20080;-66
2022/09/28 05:22:49;;;;;;;9.27;6.72;;;;;;;14.33;76.62;93711.13;4173397;28;20467;-67
2022/09/28 05:24:51;;;;;;;9.68;6.90;;;;;;;14.37;75.96;93714.97;4176153;28;20081;-66
2022/09/28 05:26:53;;;;;;;11.18;6.57;;;;;;;14.46;75.96;93708.44;4176963;28;20481;-68
2022/09/28 05:28:55;;;;;;;12.85;7.00;;;;;;;14.54;75.58;93710.88;4175843;28;20049;-66
2022/09/28 05:31:01;;;;;;;9.70;6.90;;;;;;;14.65;75.43;93714.72;4174885;28;20045;-65
2022/09/28 05:33:03;;;;;;;12.38;7.50;;;;;;;14.61;75.31;93710.06;4176323;28;20049;-65
2022/09/28 05:35:06;;;;;;;10.38;6.88;;;;;;;14.55;75.47;93714.34;4177916;28;20132;-66
2022/09/28 05:37:07;;;;;;;13.40;8.02;;;;;;;14.36;76.25;93715.97;4177268;28;20413;-60
2022/09/28 05:39:09;;;;;;;14.13;8.98;;;;;;;14.22;76.40;93717.84;4176858;28;20122;-59
2022/09/28 05:41:11;;;;;;;12.15;8.05;;;;;;;14.27;77.04;93723.28;4178017;28;20048;-57
2022/09/28 05:43:13;;;;;;;12.88;7.82;;;;;;;14.22;77.82;93722.28;4175783;28;20477;-60
2022/09/28 05:45:14;;;;;;;11.25;8.65;;;;;;;14.42;77.72;93725.69;4175945;28;20087;-60
2022/09/28 05:47:16;;;;;;;11.50;8.30;;;;;;;14.46;76.74;93726.91;4174610;28;20053;-59
2022/09/28 05:49:18;;;;;;;16.23;8.43;;;;;;;14.65;76.56;93719.97;4167863;28;20220;-59
2022/09/28 05:51:20;;;;;;;11.57;8.35;;;;;;;14.87;76.26;93725.78;4168828;28;20049;-58
2022/09/28 05:53:22;;;;;;;13.50;8.93;;;;;;;15.08;76.15;93718.59;4178243;28;20053;-58
2022/09/28 05:55:24;;;;;;;10.70;7.85;;;;;;;15.22;75.32;93706.94;4164388;28;20537;-59
2022/09/28 05:57:25;;;;;;;12.38;8.98;;;;;;;15.38;74.36;93708.28;4164737;28;20045;-60
2022/09/28 05:59:29;;;;;;;15.38;8.25;;;;;;;15.52;73.77;93715.06;4169784;28;20083;-58
2022/09/28 06:01:30;;;;;;;14.40;7.80;;;;;;;15.65;73.71;93708.91;4170515;28;20491;-59
2022/09/28 06:03:32;;;;;;;10.23;7.85;;;;;;;15.79;73.44;93707.00;4161773;28;20409;-67
2022/09/28 06:05:35;;;;;;;15.73;8.32;;;;;;;15.85;72.80;93708.81;4167409;28;20494;-68
2022/09/28 06:07:36;;;;;;;12.45;8.02;;;;;;;15.94;72.74;93720.69;4166115;28;20059;-64
2022/09/28 06:09:38;;;;;;;11.07;8.13;;;;;;;16.08;73.10;93712.66;4164606;28;20055;-66
2022/09/28 06:11:39;;;;;;;12.95;8.68;;;;;;;16.00;73.10;93720.84;4164153;28;20247;-66
2022/09/28 06:13:41;;;;;;;14.30;7.80;;;;;;;16.02;73.34;93729.38;4168474;28;20057;-66
2022/09/28 06:15:45;;;;;;;12.23;8.38;;;;;;;16.12;73.42;93719.13;4165949;28;20059;-68
2022/09/28 06:17:47;;;;;;;14.25;10.13;;;;;;;16.00;73.09;93726.13;4165077;28;20088;-65
2022/09/28 06:19:51;;;;;;;13.18;10.27;;;;;;;16.05;73.52;93731.59;4165329;28;20114;-65
2022/09/28 06:21:52;;;;;;;18.70;12.30;;;;;;;15.81;74.28;93734.03;4168210;28;20135;-67
2022/09/28 06:23:54;;;;;;;19.80;13.43;;;;;;;15.42;76.22;93730.56;4160800;28;20057;-68
2022/09/28 06:25:58;;;;;;;24.27;14.85;;;;;;;15.15;77.56;93741.28;4171255;28;20566;-66
2022/09/28 06:28:09;;;;;;;;;;;;;;;14.88;79.06;93739.78;4168463;28;20498;-64
2022/09/28 06:30:11;;;;;;;22.90;16.15;;;;;;;14.68;79.64;93735.38;4165673;28;19963;-65
2022/09/28 06:32:13;;;;;;;24.48;17.30;;;;;;;14.69;79.90;93728.28;4172672;28;20140;-68
2022/09/28 06:34:15;;;;;;;31.85;18.92;;;;;;;14.82;80.17;93744.06;4165593;28;20045;-65
2022/09/28 06:36:19;;;;;;;38.78;21.27;;;;;;;14.68;80.91;93731.94;4177561;28;20045;-67
2022/09/28 06:38:21;;;;;;;47.00;22.90;;;;;;;14.82;80.45;93740.59;4164101;28;20055;-67
2022/09/28 06:40:23;;;;;;;37.53;22.83;;;;;;;15.00;79.99;93734.66;4169951;28;20092;-65
2022/09/28 06:42:25;;;;;;;34.47;21.33;;;;;;;15.06;79.95;93737.28;4173870;28;20052;-67
2022/09/28 06:44:27;;;;;;;29.20;19.88;;;;;;;15.13;78.22;93745.94;4161542;28;20092;-65
2022/09/28 06:46:30;;;;;;;34.58;20.67;;;;;;;14.99;78.77;93754.13;4159689;28;20494;-67
2022/09/28 06:48:34;;;;;;;38.55;20.90;;;;;;;15.03;79.10;93753.50;4160621;28;20129;-66
2022/09/28 06:50:39;;;;;;;30.13;18.15;;;;;;;15.19;78.98;93754.06;4176420;28;20140;-68
2022/09/28 06:52:40;;;;;;;26.02;18.13;;;;;;;15.15;76.49;93746.56;4177864;28;20060;-66
2022/09/28 06:54:42;;;;;;;28.08;18.17;;;;;;;15.22;76.89;93756.25;4177716;28;20057;-68
2022/09/28 06:56:44;;;;;;;26.40;18.38;;;;;;;15.27;76.69;93744.06;4163634;28;20076;-68
2022/09/28 06:58:46;;;;;;;30.60;20.33;;;;;;;15.21;77.16;93741.44;4163677;28;20046;-67
2022/09/28 07:00:51;;;;;;;30.23;20.00;;;;;;;15.32;76.92;93751.34;4176822;28;20060;-65
2022/09/28 07:02:53;;;;;;;36.55;22.20;;;;;;;15.21;76.69;93742.28;4152432;28;20506;-67
2022/09/28 07:04:55;;;;;;;35.20;22.95;;;;;;;15.31;76.52;93753.16;4171794;28;20068;-65
2022/09/28 07:06:57;;;;;;;39.65;25.20;;;;;;;15.42;76.56;93753.53;4173932;28;20044;-65
2022/09/28 07:09:01;;;;;;;37.80;25.13;;;;;;;15.31;76.18;93755.00;4172031;28;20141;-66
2022/09/28 07:11:25;;;;;;;34.97;25.00;;;;;;;15.05;77.12;93751.47;4171366;28;20056;-67
2022/09/28 07:13:28;;;;;;;38.53;27.65;;;;;;;15.14;77.46;93755.50;4173648;28;20082;-67
2022/09/28 07:15:56;;;;;;;34.47;25.38;;;;;;;15.36;76.97;93763.91;4168094;28;20080;-66
2022/09/28 07:18:00;;;;;;;33.97;22.85;;;;;;;15.47;76.04;93753.72;4171335;28;20053;-70
2022/09/28 07:20:04;;;;;;;32.83;22.55;;;;;;;15.52;74.79;93756.50;4176240;28;20049;-66
2022/09/28 07:22:19;;;;;;;29.33;21.98;;;;;;;15.67;75.30;93764.13;4170227;28;20068;-69
2022/09/28 07:24:34;;;;;;;32.25;22.90;;;;;;;15.79;74.24;93757.19;4171728;28;20053;-67
2022/09/28 07:26:36;;;;;;;44.10;27.27;;;;;;;15.89;74.41;93760.13;4172582;28;20045;-67
2022/09/28 07:28:39;;;;;;;35.30;23.40;;;;;;;16.12;74.61;93771.97;4163465;28;20055;-65
2022/09/28 07:30:43;;;;;;;32.65;21.52;;;;;;;16.36;73.84;93767.69;4168400;28;20084;-68
2022/09/28 07:32:47;;;;;;;25.73;19.55;;;;;;;16.26;72.38;93765.56;4177043;28;20053;-68
2022/09/28 07:34:48;;;;;;;26.02;18.75;;;;;;;15.82;73.39;93772.59;4171013;28;20087;-66
2022/09/28 07:36:56;;;;;;;26.08;17.30;;;;;;;15.71;73.88;93762.69;4173135;28;20106;-68
2022/09/28 07:38:57;;;;;;;24.73;17.38;;;;;;;15.80;74.38;93771.19;4180259;28;20083;-68
2022/09/28 07:41:11;;;;;;;21.55;15.88;;;;;;;15.82;74.37;93769.94;4172144;28;20600;-68
2022/09/28 07:43:13;;;;;;;23.10;16.52;;;;;;;16.01;74.32;93773.47;4170736;28;20632;-67
2022/09/28 07:45:15;;;;;;;25.35;15.52;;;;;;;16.13;73.52;93776.22;4173011;28;20055;-68
2022/09/28 07:47:17;;;;;;;19.30;14.35;;;;;;;16.25;73.16;93769.22;4179199;28;20333;-68
2022/09/28 07:49:21;;;;;;;20.75;14.00;;;;;;;16.35;72.82;93766.91;4169935;28;20111;-67
2022/09/28 07:51:22;;;;;;;23.23;16.27;;;;;;;16.48;72.35;93767.81;4163097;28;20085;-65
2022/09/28 07:53:24;;;;;;;23.70;15.77;;;;;;;16.35;71.68;93768.72;4175708;28;20124;-68
2022/09/28 07:55:26;;;;;;;22.10;14.57;;;;;;;16.45;72.19;93770.88;4174864;28;20109;-65
2022/09/28 07:57:28;;;;;;;20.13;14.68;;;;;;;16.51;72.12;93775.28;4169336;28;20129;-64
2022/09/28 07:59:30;;;;;;;18.30;14.00;;;;;;;16.58;71.86;93776.84;4172987;28;20393;-65
2022/09/28 08:01:32;;;;;;;19.55;14.30;;;;;;;16.62;71.49;93774.56;4166698;28;20148;-64
2022/09/28 08:03:34;;;;;;;18.27;13.80;;;;;;;16.65;71.33;93782.06;4171251;28;20116;-66
2022/09/28 08:05:36;;;;;;;17.42;13.35;;;;;;;16.65;70.66;93768.84;4163285;28;20046;-66
2022/09/28 08:07:38;;;;;;;23.30;15.05;;;;;;;16.50;71.52;93776.31;4177274;28;20087;-69
2022/09/28 08:09:39;;;;;;;85.05;50.90;;;;;;;16.52;71.81;93775.06;4177956;28;20060;-69
2022/09/28 08:11:42;;;;;;;35.05;21.90;;;;;;;16.57;71.38;93772.56;4163126;28;20103;-65
2022/09/28 08:13:45;;;;;;;20.33;15.07;;;;;;;16.64;71.30;93775.16;4163340;28;20057;-68
2022/09/28 08:15:50;;;;;;;16.13;13.00;;;;;;;16.68;71.16;93771.03;4162499;28;20673;-67
2022/09/28 08:17:52;;;;;;;18.73;12.90;;;;;;;16.73;70.88;93780.97;4163254;28;20501;-67
2022/09/28 08:22:16;;;;;;;13.85;11.88;;;;;;;16.85;70.76;93770.50;4163398;28;20106;-67
2022/09/28 08:24:18;;;;;;;18.58;12.80;;;;;;;16.89;70.33;93790.22;4169336;28;20076;-68
2022/09/28 08:26:20;;;;;;;14.02;11.82;;;;;;;16.95;70.37;93778.72;4169230;28;20529;-67
2022/09/28 08:28:22;;;;;;;18.17;11.82;;;;;;;17.00;70.25;93776.25;4175514;28;20048;-67
2022/09/28 08:30:25;;;;;;;14.25;11.13;;;;;;;17.11;70.05;93788.72;4161245;28;20091;-69
2022/09/28 08:32:28;;;;;;;11.25;9.55;;;;;;;17.32;69.49;93789.31;4162984;28;20069;-68
2022/09/28 08:34:30;;;;;;;15.85;10.02;;;;;;;17.40;69.13;93781.03;4172997;28;20067;-67
2022/09/28 08:36:33;;;;;;;20.05;10.77;;;;;;;17.56;68.72;93790.22;4165304;28;20092;-65
2022/09/28 08:38:34;;;;;;;13.35;9.63;;;;;;;17.84;69.07;93786.19;4178182;28;20080;-65
2022/09/28 08:41:03;;;;;;;15.45;9.45;;;;;;;18.07;67.61;93773.00;4172771;28;20124;-65
2022/09/28 08:43:30;;;;;;;17.08;9.05;;;;;;;17.90;67.05;93759.59;4152070;28;20594;-67
2022/09/28 08:45:33;;;;;;;19.27;8.77;;;;;;;17.82;67.06;93770.53;4176801;28;20049;-68
2022/09/28 08:50:02;;;;;;;13.95;7.72;;;;;;;17.32;67.95;93784.00;4177458;28;20015;-70
2022/09/28 08:52:22;;;;;;;13.05;8.45;;;;;;;17.45;67.46;93769.78;4175059;28;20141;-69
2022/09/28 08:54:47;;;;;;;14.13;7.78;;;;;;;17.59;67.33;93753.50;4177541;28;20041;-67
2022/09/28 08:56:53;;;;;;;10.57;6.57;;;;;;;17.97;67.10;93767.44;4164647;28;20138;-67
2022/09/28 08:58:58;;;;;;;10.40;6.53;;;;;;;18.31;66.58;93765.88;4176275;28;20088;-67
2022/09/28 09:01:01;;;;;;;10.32;6.50;;;;;;;17.97;64.41;93757.66;4166025;28;20096;-65
2022/09/28 09:03:05;;;;;;;11.23;6.45;;;;;;;17.74;65.67;93758.38;4161684;28;20114;-67
2022/09/28 09:05:13;;;;;;;10.88;6.72;;;;;;;17.96;66.09;93757.88;4169678;28;20049;-66
2022/09/28 09:07:24;;;;;;;10.55;6.30;;;;;;;18.33;65.89;93755.06;4164380;28;20142;-68
2022/09/28 09:09:59;;;;;;;11.40;6.30;;;;;;;18.46;63.29;93752.19;4161855;28;20049;-67
2022/09/28 09:12:02;;;;;;;9.38;5.57;;;;;;;18.42;63.58;93754.47;4171112;28;20061;-67
2022/09/28 09:14:20;;;;;;;14.52;6.32;;;;;;;18.39;63.82;93747.00;4163075;28;20053;-65
2022/09/28 09:16:27;;;;;;;13.43;5.78;;;;;;;18.77;63.42;93745.69;4159558;28;20061;-64
2022/09/28 09:18:57;;;;;;;12.45;5.63;;;;;;;18.98;62.94;93743.50;4162165;28;20054;-69
2022/09/28 09:21:09;;;;;;;8.50;5.28;;;;;;;19.31;62.78;93750.78;4161441;28;20052;-64
2022/09/28 09:24:06;;;;;;;11.25;5.45;;;;;;;19.66;61.05;93741.91;4160809;28;20068;-66
2022/09/28 09:26:17;;;;;;;9.63;5.18;;;;;;;19.33;58.88;93737.28;4138524;28;20050;-60
2022/09/28 09:28:34;;;;;;;12.45;5.30;;;;;;;19.16;59.48;93731.91;4161644;28;20056;-61
2022/09/28 09:31:04;;;;;;;9.88;4.43;;;;;;;19.26;59.30;93732.09;4166334;28;20049;-62
2022/09/28 09:33:38;;;;;;;14.70;5.78;;;;;;;19.48;59.63;93739.41;4177627;28;20049;-59
2022/09/28 09:36:08;;;;;;;9.02;4.13;;;;;;;19.83;58.76;93733.97;4169505;28;20053;-60
2022/09/28 09:38:31;;;;;;;12.18;4.50;;;;;;;19.75;57.92;93739.69;4178048;28;20115;-63
2022/09/28 09:40:37;;;;;;;9.23;4.85;;;;;;;19.83;58.10;93731.28;4173574;28;20056;-63
2022/09/28 09:42:58;;;;;;;10.50;4.95;;;;;;;19.90;56.79;93721.34;4160184;28;20163;-69
2022/09/28 09:45:23;;;;;;;13.38;5.10;;;;;;;19.98;57.36;93726.25;4165478;28;20060;-61
2022/09/28 09:47:31;;;;;;;7.18;4.22;;;;;;;20.23;57.35;93730.38;4164876;28;20042;-62
2022/09/28 09:49:42;;;;;;;10.77;4.88;;;;;;;20.29;56.43;93723.28;4169311;28;20506;-61
2022/09/28 09:52:13;;;;;;;7.00;4.53;;;;;;;20.54;56.56;93725.50;4163439;28;20064;-61
2022/09/28 09:54:18;;;;;;;6.75;4.05;;;;;;;20.41;54.87;93726.63;4165149;28;20041;-61
2022/09/28 09:56:48;;;;;;;7.40;4.28;;;;;;;20.37;55.32;93726.34;4174185;28;20053;-64